Time;durP1;ratioP1;P1;durP2;ratioP2;P2;SDS_P1;SDS_P2;PMS_P1;PMS_P2;Temp;Humidity;BMP_temperature;BMP_pressure;BME280_temperature;BME280_humidity;BME280_pressure;Samples;Min_cycle;Max_cycle;Signal;HPM_P1;HPM_P2
2023/12/22 00:00:04;;;;;;;;;;;;;;;7.64;61.15;96566.42;109492;1253;72738;-60
2023/12/22 00:02:31;;;;;;;;;;;;;;;7.77;60.46;96553.55;109227;1256;60943;-58
2023/12/22 00:04:59;;;;;;;;;;;;;;;7.77;60.38;96549.27;109505;1252;59865;-60
2023/12/22 00:07:26;;;;;;;;;;;;;;;7.63;61.00;96538.41;109505;1253;74679;-60
2023/12/22 00:09:54;;;;;;;;;;;;;;;7.74;60.45;96528.89;109538;1253;68832;-61
2023/12/22 00:12:21;;;;;;;;;;;;;;;7.52;61.22;96529.32;109343;1253;70556;-61
2023/12/22 00:14:49;;;;;;;;;;;;;;;7.55;61.12;96538.18;109544;1253;60952;-59
2023/12/22 00:17:16;;;;;;;;;;;;;;;7.53;61.07;96537.92;109333;1252;59888;-58
2023/12/22 00:19:44;;;;;;;;;;;;;;;7.48;61.17;96534.31;109494;1254;74716;-58
2023/12/22 00:22:11;;;;;;;;;;;;;;;7.43;61.60;96535.14;109500;1253;67605;-58
2023/12/22 00:24:40;;;;;;;;;;;;;;;7.47;61.46;96539.21;109198;1254;74139;-59
2023/12/22 00:27:07;;;;;;;;;;;;;;;7.45;61.28;96530.92;109253;1254;60997;-60
2023/12/22 00:29:37;;;;;;;;;;;;;;;7.44;61.37;96526.17;109561;1255;58869;-58
2023/12/22 00:32:04;;;;;;;;;;;;;;;7.30;62.35;96530.21;109553;1254;73459;-58
2023/12/22 00:34:32;;;;;;;;;;;;;;;7.46;61.72;96529.10;109552;1253;68813;-58
2023/12/22 00:37:00;;;;;;;;;;;;;;;7.47;61.50;96524.46;109524;1254;72729;-58
2023/12/22 00:39:27;;;;;;;;;;;;;;;7.45;61.90;96519.08;109520;1253;59737;-59
2023/12/22 00:41:54;;;;;;;;;;;;;;;7.72;60.67;96515.70;109474;1255;58932;-59
2023/12/22 00:44:22;;;;;;;;;;;;;;;7.50;61.36;96504.69;109253;1254;74848;-59
2023/12/22 00:46:49;;;;;;;;;;;;;;;7.73;60.72;96507.20;109521;1252;68644;-60
2023/12/22 00:49:18;;;;;;;;;;;;;;;7.84;59.92;96497.27;109640;1253;72827;-59
2023/12/22 00:51:45;;;;;;;;;;;;;;;7.79;59.99;96494.67;109558;1254;60911;-58
2023/12/22 00:54:13;;;;;;;;;;;;;;;7.83;59.83;96488.69;109265;1253;58916;-58
2023/12/22 00:56:40;;;;;;;;;;;;;;;7.86;59.52;96485.65;109375;1253;74770;-58
2023/12/22 00:59:07;;;;;;;;;;;;;;;7.90;59.38;96483.77;109582;1253;67794;-58
2023/12/22 01:01:38;;;;;;;;;;;;;;;7.89;59.12;96478.90;109588;1253;71457;-59
2023/12/22 01:04:06;;;;;;;;;;;;;;;7.99;58.74;96477.54;109586;1254;59483;-58
2023/12/22 01:06:36;;;;;;;;;;;;;;;8.04;58.38;96466.23;109448;1254;59852;-59
2023/12/22 01:09:04;;;;;;;;;;;;;;;7.75;59.50;96461.09;109214;1253;74684;-58
2023/12/22 01:11:32;;;;;;;;;;;;;;;8.10;58.22;96463.36;109386;1254;68825;-58
2023/12/22 01:13:59;;;;;;;;;;;;;;;8.10;57.81;96458.79;109382;1254;72046;-58
2023/12/22 01:16:26;;;;;;;;;;;;;;;8.03;57.88;96462.14;109347;1255;59803;-58
2023/12/22 01:18:54;;;;;;;;;;;;;;;7.97;58.34;96453.41;109350;1254;59877;-59
2023/12/22 01:21:22;;;;;;;;;;;;;;;7.84;58.78;96457.52;109417;1254;72584;-58
2023/12/22 01:23:49;;;;;;;;;;;;;;;7.94;58.33;96456.29;109383;1254;67613;-60
2023/12/22 01:26:17;;;;;;;;;;;;;;;8.11;57.68;96444.92;109269;1254;72738;-60
2023/12/22 01:28:44;;;;;;;;;;;;;;;7.89;58.69;96443.17;109074;1257;59255;-60
2023/12/22 01:31:12;;;;;;;;;;;;;;;7.88;58.90;96439.26;108594;1254;1002977;-60
2023/12/22 01:33:39;;;;;;;;;;;;;;;8.08;58.03;96433.66;109366;1254;74249;-57
2023/12/22 01:36:07;;;;;;;;;;;;;;;7.99;58.20;96420.35;109466;1253;68795;-57
2023/12/22 01:38:34;;;;;;;;;;;;;;;7.88;58.42;96414.84;109596;1253;72810;-57
2023/12/22 01:41:02;;;;;;;;;;;;;;;8.03;58.06;96421.77;109582;1254;59719;-58
2023/12/22 01:43:29;;;;;;;;;;;;;;;7.75;58.79;96441.08;109582;1252;58970;-58
2023/12/22 01:45:57;;;;;;;;;;;;;;;7.71;59.02;96443.75;109629;1256;74731;-58
2023/12/22 01:48:24;;;;;;;;;;;;;;;8.03;57.84;96439.98;109619;1253;68506;-58
2023/12/22 01:50:52;;;;;;;;;;;;;;;7.99;57.53;96435.40;109275;1253;71776;-59
2023/12/22 01:53:20;;;;;;;;;;;;;;;8.13;57.19;96425.86;109520;1254;59672;-60
2023/12/22 01:55:48;;;;;;;;;;;;;;;8.18;56.85;96419.70;109580;1253;58980;-59
2023/12/22 01:58:15;;;;;;;;;;;;;;;8.12;57.40;96413.38;109371;1252;73468;-59
2023/12/22 02:00:43;;;;;;;;;;;;;;;8.18;57.53;96398.23;109265;1260;67759;-58
2023/12/22 02:03:10;;;;;;;;;;;;;;;8.38;57.07;96383.46;109442;1253;72768;-58
2023/12/22 02:05:38;;;;;;;;;;;;;;;8.52;56.52;96373.01;109440;1254;59654;-59
2023/12/22 02:08:05;;;;;;;;;;;;;;;8.58;56.37;96364.92;109621;1254;58978;-59
2023/12/22 02:10:32;;;;;;;;;;;;;;;8.52;56.34;96364.60;109608;1251;75593;-59
2023/12/22 02:13:00;;;;;;;;;;;;;;;8.53;56.54;96360.36;109655;1251;69582;-59
2023/12/22 02:15:28;;;;;;;;;;;;;;;8.62;55.77;96361.89;109532;1254;72754;-60
2023/12/22 02:18:04;;;;;;;;;;;;;;;8.68;55.71;96365.39;109484;1254;61089;-59
2023/12/22 02:20:32;;;;;;;;;;;;;;;8.68;55.54;96354.89;109664;1254;59851;-60
2023/12/22 02:22:59;;;;;;;;;;;;;;;8.58;55.86;96341.92;109276;1256;73735;-63
2023/12/22 02:25:26;;;;;;;;;;;;;;;8.42;56.44;96336.20;109345;1256;68527;-61
2023/12/22 02:27:57;;;;;;;;;;;;;;;8.36;56.98;96346.41;109255;1256;72687;-60
2023/12/22 02:30:36;;;;;;;;;;;;;;;8.39;56.84;96345.55;109189;1256;59702;-62
2023/12/22 02:33:04;;;;;;;;;;;;;;;8.41;56.73;96348.68;109096;1256;58945;-62
2023/12/22 02:35:32;;;;;;;;;;;;;;;8.44;56.71;96348.27;109293;1254;74657;-61
2023/12/22 02:38:00;;;;;;;;;;;;;;;8.26;56.96;96346.60;109158;1256;67668;-60
2023/12/22 02:40:28;;;;;;;;;;;;;;;8.39;57.09;96354.63;109106;1256;70977;-59
2023/12/22 02:42:56;;;;;;;;;;;;;;;8.33;57.01;96350.64;109227;1256;59232;-59
2023/12/22 02:45:23;;;;;;;;;;;;;;;8.34;57.02;96357.61;109269;1256;58933;-60
2023/12/22 02:47:50;;;;;;;;;;;;;;;8.29;57.24;96352.42;109189;1256;74734;-59
2023/12/22 02:50:18;;;;;;;;;;;;;;;8.27;57.25;96351.42;109092;1255;67661;-58
2023/12/22 02:52:46;;;;;;;;;;;;;;;8.45;56.68;96351.38;109083;1258;72762;-60
2023/12/22 02:55:13;;;;;;;;;;;;;;;8.50;56.61;96349.37;109210;1254;59827;-58
2023/12/22 02:57:41;;;;;;;;;;;;;;;8.58;56.23;96349.51;109343;1254;59000;-58
2023/12/22 03:00:08;;;;;;;;;;;;;;;8.71;55.89;96355.35;109342;1254;74737;-58
2023/12/22 03:02:36;;;;;;;;;;;;;;;8.76;55.74;96350.37;109330;1254;68829;-59
2023/12/22 03:05:04;;;;;;;;;;;;;;;8.66;56.08;96350.36;109354;1254;71792;-58
2023/12/22 03:07:32;;;;;;;;;;;;;;;8.66;56.19;96343.56;109309;1254;59724;-58
2023/12/22 03:09:59;;;;;;;;;;;;;;;8.66;56.12;96347.44;109590;1255;59849;-60
2023/12/22 03:12:26;;;;;;;;;;;;;;;8.74;56.11;96342.95;109612;1253;74761;-58
2023/12/22 03:14:54;;;;;;;;;;;;;;;8.68;56.40;96344.47;109559;1253;68795;-59
2023/12/22 03:17:21;;;;;;;;;;;;;;;8.75;56.50;96350.81;109600;1253;72864;-58
2023/12/22 03:19:49;;;;;;;;;;;;;;;8.61;57.22;96345.71;109471;1254;59689;-59
2023/12/22 03:22:16;;;;;;;;;;;;;;;8.49;57.41;96336.59;109576;1253;59854;-59
2023/12/22 03:24:44;;;;;;;;;;;;;;;8.43;58.08;96329.16;108766;1251;1002340;-62
2023/12/22 03:27:16;;;;;;;;;;;;;;;8.49;58.44;96327.28;109580;1255;68594;-59
2023/12/22 03:29:43;;;;;;;;;;;;;;;8.53;58.58;96323.06;108510;1254;1002429;-59
2023/12/22 03:32:11;;;;;;;;;;;;;;;8.34;59.24;96320.30;109503;1254;60948;-59
2023/12/22 03:34:38;;;;;;;;;;;;;;;8.37;59.45;96314.38;109592;1253;60023;-59
2023/12/22 03:37:06;;;;;;;;;;;;;;;8.40;59.44;96301.52;109210;1252;74724;-59
2023/12/22 03:39:33;;;;;;;;;;;;;;;8.22;60.42;96294.35;109454;1253;68816;-58
2023/12/22 03:42:01;;;;;;;;;;;;;;;8.10;61.53;96290.82;109265;1254;72720;-62
2023/12/22 03:44:28;;;;;;;;;;;;;;;8.23;61.10;96292.50;109522;1254;61042;-58
2023/12/22 03:46:56;;;;;;;;;;;;;;;8.18;61.17;96285.02;109616;1254;59048;-59
2023/12/22 03:49:23;;;;;;;;;;;;;;;8.02;62.28;96273.20;109470;1254;74722;-59
2023/12/22 03:51:51;;;;;;;;;;;;;;;8.07;62.12;96270.99;109501;1253;66586;-58
2023/12/22 03:54:18;;;;;;;;;;;;;;;8.05;62.30;96262.58;109496;1253;71462;-59
2023/12/22 03:56:46;;;;;;;;;;;;;;;8.26;62.01;96275.69;109460;1254;60978;-59
2023/12/22 03:59:13;;;;;;;;;;;;;;;8.07;62.64;96275.58;109393;1253;58940;-58
2023/12/22 04:01:42;;;;;;;;;;;;;;;7.91;63.52;96274.45;109458;1254;73481;-58
2023/12/22 04:04:09;;;;;;;;;;;;;;;8.04;63.00;96276.28;109486;1254;68937;-58
2023/12/22 04:06:40;;;;;;;;;;;;;;;8.14;62.47;96278.02;109327;1254;72778;-58
2023/12/22 04:09:07;;;;;;;;;;;;;;;8.10;63.01;96280.89;109496;1253;60672;-59
2023/12/22 04:11:36;;;;;;;;;;;;;;;7.96;63.33;96273.59;109586;1253;59856;-60
2023/12/22 04:14:06;;;;;;;;;;;;;;;7.98;63.51;96274.05;109600;1252;73442;-59
2023/12/22 04:16:36;;;;;;;;;;;;;;;7.95;63.90;96265.58;109308;1253;67653;-59
2023/12/22 04:19:03;;;;;;;;;;;;;;;7.88;64.51;96267.60;109588;1252;72751;-58
2023/12/22 04:21:31;;;;;;;;;;;;;;;7.85;64.71;96265.87;109461;1254;60946;-59
2023/12/22 04:23:58;;;;;;;;;;;;;;;8.00;64.41;96269.55;109534;1252;58959;-59
2023/12/22 04:26:25;;;;;;;;;;;;;;;7.84;65.23;96260.85;109543;1253;74703;-63
2023/12/22 04:28:53;;;;;;;;;;;;;;;7.83;65.81;96261.25;109566;1254;68807;-60
2023/12/22 04:31:20;;;;;;;;;;;;;;;7.69;67.33;96265.25;109600;1254;72682;-60
2023/12/22 04:33:48;;;;;;;;;;;;;;;7.78;67.76;96263.27;109565;1253;59656;-59
2023/12/22 04:36:15;;;;;;;;;;;;;;;7.54;69.08;96248.64;109533;1253;59887;-60
2023/12/22 04:38:43;;;;;;;;;;;;;;;7.26;73.38;96243.75;109569;1254;74697;-59
2023/12/22 04:41:10;;;;;;;;;;;;;;;7.53;74.35;96249.00;109607;1254;67755;-60
2023/12/22 04:43:38;;;;;;;;;;;;;;;7.41;75.16;96240.36;109609;1253;71424;-59
2023/12/22 04:46:05;;;;;;;;;;;;;;;7.32;77.71;96244.12;109459;1255;59660;-61
2023/12/22 04:48:33;;;;;;;;;;;;;;;7.32;78.81;96250.52;109569;1252;59053;-62
2023/12/22 04:51:00;;;;;;;;;;;;;;;7.43;79.38;96245.95;109459;1254;73396;-60
2023/12/22 04:53:28;;;;;;;;;;;;;;;7.15;80.89;96241.37;109490;1254;68775;-61
2023/12/22 04:55:55;;;;;;;;;;;;;;;7.30;81.09;96241.17;109472;1254;72737;-63
2023/12/22 04:58:23;;;;;;;;;;;;;;;7.21;81.82;96234.33;109249;1255;60931;-62
2023/12/22 05:00:51;;;;;;;;;;;;;;;7.18;82.35;96231.81;109027;1261;59041;-60
2023/12/22 05:03:18;;;;;;;;;;;;;;;7.29;82.09;96231.94;109093;1256;74725;-59
2023/12/22 05:05:46;;;;;;;;;;;;;;;7.36;82.10;96228.80;109126;1256;69018;-61
2023/12/22 05:08:14;;;;;;;;;;;;;;;7.54;81.51;96221.96;109127;1257;71496;-60
2023/12/22 05:10:42;;;;;;;;;;;;;;;7.49;81.71;96216.73;109188;1254;60981;-60
2023/12/22 05:13:09;;;;;;;;;;;;;;;7.44;82.77;96207.44;109285;1257;59016;-63
2023/12/22 05:15:37;;;;;;;;;;;;;;;7.54;82.30;96212.09;109284;1256;74712;-60
2023/12/22 05:18:04;;;;;;;;;;;;;;;7.67;81.72;96214.14;109304;1255;66465;-59
2023/12/22 05:20:32;;;;;;;;;;;;;;;7.58;82.14;96214.41;109258;1255;71051;-59
2023/12/22 05:22:59;;;;;;;;;;;;;;;7.39;83.02;96202.77;109289;1254;60939;-62
2023/12/22 05:25:28;;;;;;;;;;;;;;;7.20;85.64;96203.55;109242;1254;109646;-60
2023/12/22 05:27:56;;;;;;;;;;;;;;;7.14;86.26;96201.78;109389;1254;74701;-59
2023/12/22 05:30:24;;;;;;;;;;;;;;;7.20;86.04;96201.88;109057;1257;68385;-59
2023/12/22 05:32:51;;;;;;;;;;;;;;;7.17;86.32;96199.77;108280;1257;1002345;-59
2023/12/22 05:35:19;;;;;;;;;;;;;;;7.18;86.13;96205.36;108876;1257;59674;-58
2023/12/22 05:37:47;;;;;;;;;;;;;;;7.13;85.81;96201.71;109091;1256;60035;-59
2023/12/22 05:40:16;;;;;;;;;;;;;;;6.96;87.48;96202.96;109212;1256;75227;-58
2023/12/22 05:42:43;;;;;;;;;;;;;;;6.96;87.15;96199.35;109104;1256;68028;-59
2023/12/22 05:45:11;;;;;;;;;;;;;;;7.10;86.88;96198.45;109108;1257;72740;-59
2023/12/22 05:47:38;;;;;;;;;;;;;;;7.16;86.46;96194.53;108978;1256;59763;-58
2023/12/22 05:50:07;;;;;;;;;;;;;;;6.77;88.89;96189.06;109118;1256;59415;-58
2023/12/22 05:52:34;;;;;;;;;;;;;;;6.98;88.51;96193.67;109014;1256;75018;-62
2023/12/22 05:55:02;;;;;;;;;;;;;;;6.89;89.48;96185.95;109160;1256;67784;-60
2023/12/22 05:57:29;;;;;;;;;;;;;;;6.80;89.30;96179.91;108428;1256;1002477;-58
2023/12/22 05:59:59;;;;;;;;;;;;;;;6.77;90.01;96173.07;109156;1256;60947;-59
2023/12/22 06:02:26;;;;;;;;;;;;;;;6.78;90.00;96176.70;109439;1252;59878;-58
2023/12/22 06:04:54;;;;;;;;;;;;;;;6.87;89.51;96174.49;109602;1253;72811;-61
2023/12/22 06:07:21;;;;;;;;;;;;;;;6.79;90.02;96179.27;109606;1253;67411;-61
2023/12/22 06:09:49;;;;;;;;;;;;;;;6.82;90.14;96179.98;109143;1253;70479;-63
2023/12/22 06:12:16;;;;;;;;;;;;;;;6.91;89.58;96180.34;109416;1253;60927;-62
2023/12/22 06:14:43;;;;;;;;;;;;;;;6.92;89.26;96176.03;109506;1252;59051;-60
2023/12/22 06:17:11;;;;;;;;;;;;;;;6.96;89.18;96176.67;109603;1253;74696;-63
2023/12/22 06:19:38;;;;;;;;;;;;;;;6.74;90.44;96173.70;109575;1253;67679;-59
2023/12/22 06:22:06;;;;;;;;;;;;;;;6.86;90.36;96172.10;109447;1253;72721;-60
2023/12/22 06:24:34;;;;;;;;;;;;;;;7.03;88.92;96168.98;109459;1254;59932;-62
2023/12/22 06:27:02;;;;;;;;;;;;;;;6.83;89.92;96169.27;109610;1253;59062;-59
2023/12/22 06:29:30;;;;;;;;;;;;;;;6.91;90.02;96169.66;108876;1253;1002436;-58
2023/12/22 06:31:58;;;;;;;;;;;;;;;6.98;89.69;96169.30;109195;1253;68825;-58
2023/12/22 06:34:25;;;;;;;;;;;;;;;7.12;88.73;96162.66;109289;1253;72924;-60
2023/12/22 06:36:53;;;;;;;;;;;;;;;7.04;89.02;96161.09;109489;1253;60923;-61
2023/12/22 06:39:21;;;;;;;;;;;;;;;7.21;88.51;96162.52;109586;1253;59868;-59
2023/12/22 06:41:48;;;;;;;;;;;;;;;7.20;88.38;96159.30;109562;1254;74695;-59
2023/12/22 06:44:15;;;;;;;;;;;;;;;7.36;87.25;96158.52;109606;1253;68755;-59
2023/12/22 06:46:43;;;;;;;;;;;;;;;7.39;86.79;96159.50;109596;1253;71463;-59
2023/12/22 06:49:10;;;;;;;;;;;;;;;7.11;88.30;96152.64;109562;1252;60984;-59
2023/12/22 06:51:38;;;;;;;;;;;;;;;7.10;88.87;96148.88;109602;1253;59133;-62
2023/12/22 06:54:05;;;;;;;;;;;;;;;7.29;88.03;96145.42;109583;1253;73846;-59
2023/12/22 06:56:34;;;;;;;;;;;;;;;7.31;87.59;96145.51;109625;1252;67576;-59
2023/12/22 06:59:01;;;;;;;;;;;;;;;7.33;87.51;96144.59;109627;1254;70705;-59
2023/12/22 07:01:32;;;;;;;;;;;;;;;7.44;87.04;96145.53;109555;1252;58984;-61
2023/12/22 07:04:01;;;;;;;;;;;;;;;7.52;86.70;96141.65;109170;1253;58869;-59
2023/12/22 07:06:29;;;;;;;;;;;;;;;7.46;87.26;96138.99;109591;1252;74730;-59
2023/12/22 07:09:11;;;;;;;;;;;;;;;7.51;87.12;96141.08;109422;1254;69022;-59
2023/12/22 07:11:40;;;;;;;;;;;;;;;7.44;87.48;96141.38;109201;1254;71773;-59
2023/12/22 07:14:08;;;;;;;;;;;;;;;7.60;87.33;96143.38;109370;1254;60898;-59
2023/12/22 07:16:37;;;;;;;;;;;;;;;7.50;87.74;96141.81;109183;1254;59849;-59
2023/12/22 07:19:04;;;;;;;;;;;;;;;7.42;87.78;96140.35;109148;1254;73456;-59
2023/12/22 07:21:32;;;;;;;;;;;;;;;7.48;88.34;96139.15;109370;1254;67595;-59
2023/12/22 07:24:00;;;;;;;;;;;;;;;7.69;87.41;96144.44;109415;1254;72699;-59
2023/12/22 07:26:28;;;;;;;;;;;;;;;7.66;87.77;96146.21;109392;1254;61029;-59
2023/12/22 07:28:55;;;;;;;;;;;;;;;7.63;87.66;96140.38;109438;1254;59253;-60
2023/12/22 07:31:23;;;;;;;;;;;;;;;7.58;88.76;96143.35;109221;1256;74694;-59
2023/12/22 07:33:51;;;;;;;;;;;;;;;7.56;88.92;96143.88;109187;1256;68575;-59
2023/12/22 07:36:19;;;;;;;;;;;;;;;7.67;88.55;96142.05;109148;1256;72723;-59
2023/12/22 07:38:49;;;;;;;;;;;;;;;7.78;88.22;96141.75;109020;1256;61035;-59
2023/12/22 07:41:16;;;;;;;;;;;;;;;7.72;88.45;96144.70;109091;1256;59929;-59
2023/12/22 07:43:45;;;;;;;;;;;;;;;7.85;87.63;96148.02;109204;1256;73450;-59
2023/12/22 07:46:19;;;;;;;;;;;;;;;7.90;87.11;96151.33;109166;1256;67236;-59
2023/12/22 07:48:46;;;;;;;;;;;;;;;7.87;87.48;96157.60;109257;1255;72767;-59
2023/12/22 07:51:15;;;;;;;;;;;;;;;7.81;87.54;96158.30;109276;1255;59152;-58
2023/12/22 07:53:43;;;;;;;;;;;;;;;8.09;86.08;96159.80;109205;1255;58911;-59
2023/12/22 07:56:11;;;;;;;;;;;;;;;7.99;86.23;96157.59;109040;1255;74867;-58
2023/12/22 07:58:39;;;;;;;;;;;;;;;7.76;87.84;96152.91;109198;1256;68871;-59
2023/12/22 08:01:07;;;;;;;;;;;;;;;7.68;88.91;96158.83;109148;1256;72804;-59
2023/12/22 08:03:34;;;;;;;;;;;;;;;7.87;87.85;96157.40;109359;1254;60935;-59
2023/12/22 08:06:02;;;;;;;;;;;;;;;7.88;88.04;96158.13;109393;1254;58885;-60
2023/12/22 08:08:30;;;;;;;;;;;;;;;7.83;87.90;96151.41;109423;1253;73783;-59
2023/12/22 08:10:57;;;;;;;;;;;;;;;7.98;87.28;96143.73;109615;1253;68524;-59
2023/12/22 08:13:25;;;;;;;;;;;;;;;8.07;86.95;96146.83;109533;1252;70890;-60
2023/12/22 08:15:53;;;;;;;;;;;;;;;7.75;88.69;96153.32;109408;1253;59930;-57
2023/12/22 08:18:20;;;;;;;;;;;;;;;7.54;89.89;96149.31;109511;1252;59897;-59
2023/12/22 08:20:49;;;;;;;;;;;;;;;7.72;89.67;96154.02;109508;1253;74707;-59
2023/12/22 08:23:18;;;;;;;;;;;;;;;7.72;89.11;96150.13;109532;1252;67660;-59
2023/12/22 08:25:46;;;;;;;;;;;;;;;7.50;90.77;96155.09;109519;1252;71176;-60
2023/12/22 08:28:14;;;;;;;;;;;;;;;7.64;90.29;96154.51;109504;1252;60936;-59
2023/12/22 08:30:41;;;;;;;;;;;;;;;7.58;90.53;96150.21;109363;1253;58954;-58
2023/12/22 08:33:10;;;;;;;;;;;;;;;7.72;89.93;96150.65;109566;1252;74697;-59
2023/12/22 08:35:37;;;;;;;;;;;;;;;7.64;90.05;96137.73;109542;1252;67357;-60
2023/12/22 08:38:05;;;;;;;;;;;;;;;7.71;90.19;96137.59;109527;1252;71493;-59
2023/12/22 08:40:32;;;;;;;;;;;;;;;7.56;91.20;96137.94;109531;1252;59675;-58
2023/12/22 08:43:00;;;;;;;;;;;;;;;7.45;92.07;96141.70;109523;1252;58992;-59
2023/12/22 08:45:28;;;;;;;;;;;;;;;7.37;93.35;96138.88;109560;1252;72938;-59
2023/12/22 08:47:56;;;;;;;;;;;;;;;7.57;92.10;96139.77;109537;1252;67606;-60
2023/12/22 08:50:24;;;;;;;;;;;;;;;7.81;90.74;96137.16;109539;1252;72770;-59
2023/12/22 08:52:52;;;;;;;;;;;;;;;7.61;91.93;96138.15;109150;1252;59831;-59
2023/12/22 08:55:20;;;;;;;;;;;;;;;7.39;93.36;96136.67;109581;1252;59006;-62
2023/12/22 08:57:47;;;;;;;;;;;;;;;7.39;94.21;96141.20;109528;1253;73427;-61
2023/12/22 09:00:26;;;;;;;;;;;;;;;7.47;93.60;96135.04;109555;1253;68865;-63
2023/12/22 09:02:53;;;;;;;;;;;;;;;7.52;93.78;96136.54;109514;1252;72733;-62
2023/12/22 09:05:21;;;;;;;;;;;;;;;7.49;94.33;96136.13;109468;1254;59675;-60
2023/12/22 09:07:49;;;;;;;;;;;;;;;7.30;95.07;96128.21;109531;1252;59093;-61
2023/12/22 09:10:17;;;;;;;;;;;;;;;7.39;95.18;96130.84;109528;1252;75186;-61
2023/12/22 09:12:45;;;;;;;;;;;;;;;7.52;94.59;96135.36;109562;1252;67621;-62
2023/12/22 09:15:12;;;;;;;;;;;;;;;7.57;94.27;96129.78;109407;1253;72741;-60
2023/12/22 09:17:41;;;;;;;;;;;;;;;7.92;92.61;96134.55;109383;1254;60924;-64
2023/12/22 09:20:11;;;;;;;;;;;;;;;8.02;91.29;96138.69;109589;1253;58848;-59
2023/12/22 09:22:39;;;;;;;;;;;;;;;7.95;91.59;96138.24;109531;1252;74744;-60
2023/12/22 09:25:08;;;;;;;;;;;;;;;7.91;92.35;96136.56;109191;1253;69006;-60
2023/12/22 09:27:36;;;;;;;;;;;;;;;7.93;92.11;96133.05;109464;1252;72757;-60
2023/12/22 09:30:06;;;;;;;;;;;;;;;7.81;92.67;96127.92;109487;1252;60940;-60
2023/12/22 09:32:34;;;;;;;;;;;;;;;7.69;93.89;96120.64;109558;1252;60303;-60
2023/12/22 09:35:02;;;;;;;;;;;;;;;7.69;93.82;96121.42;109511;1252;74818;-60
2023/12/22 09:37:30;;;;;;;;;;;;;;;7.86;94.00;96123.63;109439;1253;67833;-60
2023/12/22 09:39:58;;;;;;;;;;;;;;;7.97;92.79;96127.80;109402;1254;71382;-59
2023/12/22 09:42:25;;;;;;;;;;;;;;;8.02;92.55;96124.48;109254;1256;59674;-60
2023/12/22 09:44:53;;;;;;;;;;;;;;;8.09;92.37;96123.33;109288;1254;59876;-59
2023/12/22 09:47:21;;;;;;;;;;;;;;;8.13;92.21;96120.73;109157;1254;74802;-59
2023/12/22 09:49:48;;;;;;;;;;;;;;;8.24;91.35;96121.39;109215;1254;67724;-62
2023/12/22 09:52:16;;;;;;;;;;;;;;;8.44;90.17;96114.30;109359;1254;71458;-60
2023/12/22 09:54:44;;;;;;;;;;;;;;;8.64;88.99;96116.23;109210;1254;60913;-59
2023/12/22 09:57:11;;;;;;;;;;;;;;;8.48;89.73;96115.08;109352;1254;59891;-59
2023/12/22 09:59:52;;;;;;;;;;;;;;;8.21;91.79;96111.96;109315;1254;74778;-59
2023/12/22 10:02:20;;;;;;;;;;;;;;;8.35;91.54;96114.78;109219;1254;67250;-59
2023/12/22 10:04:47;;;;;;;;;;;;;;;8.37;91.60;96109.23;109112;1256;72730;-61
2023/12/22 10:07:15;;;;;;;;;;;;;;;8.44;90.98;96106.29;108917;1258;60988;-60
2023/12/22 10:09:43;;;;;;;;;;;;;;;8.25;92.52;96103.27;109103;1256;59292;-59
2023/12/22 10:12:11;;;;;;;;;;;;;;;8.38;92.12;96108.45;109136;1256;75031;-59
2023/12/22 10:14:38;;;;;;;;;;;;;;;8.61;90.52;96101.76;109176;1255;68690;-62
2023/12/22 10:17:07;;;;;;;;;;;;;;;8.50;90.83;96096.76;109128;1256;72724;-59
2023/12/22 10:19:35;;;;;;;;;;;;;;;8.63;90.36;96094.27;109252;1256;61108;-59
2023/12/22 10:22:03;;;;;;;;;;;;;;;8.75;89.59;96093.95;109208;1255;58979;-62
2023/12/22 10:24:42;;;;;;;;;;;;;;;8.78;89.46;96100.04;109209;1256;74734;-59
2023/12/22 10:27:10;;;;;;;;;;;;;;;8.68;89.94;96103.91;109149;1257;68930;-60
2023/12/22 10:29:37;;;;;;;;;;;;;;;8.61;90.68;96108.86;109169;1256;72743;-61
2023/12/22 10:32:05;;;;;;;;;;;;;;;8.65;90.55;96111.91;108849;1255;59660;-63
2023/12/22 10:34:35;;;;;;;;;;;;;;;8.80;89.41;96110.63;109081;1256;60349;-62
2023/12/22 10:37:03;;;;;;;;;;;;;;;8.87;89.63;96106.38;109334;1252;75168;-60
2023/12/22 10:39:30;;;;;;;;;;;;;;;8.72;90.04;96106.44;109469;1253;68531;-59
2023/12/22 10:41:58;;;;;;;;;;;;;;;8.87;89.96;96109.13;109537;1252;72740;-60
2023/12/22 10:44:26;;;;;;;;;;;;;;;8.57;91.27;96107.73;109476;1255;59986;-59
2023/12/22 10:46:54;;;;;;;;;;;;;;;8.45;92.78;96105.04;109417;1252;58974;-59
2023/12/22 10:49:22;;;;;;;;;;;;;;;8.38;93.06;96107.59;109513;1252;74733;-61
2023/12/22 10:51:50;;;;;;;;;;;;;;;8.62;92.11;96107.37;109441;1253;67531;-62
2023/12/22 10:54:18;;;;;;;;;;;;;;;8.34;92.97;96102.02;109498;1252;72903;-60
2023/12/22 10:56:45;;;;;;;;;;;;;;;8.45;93.20;96108.39;109396;1254;59670;-62
2023/12/22 10:59:13;;;;;;;;;;;;;;;8.49;92.36;96105.63;109449;1252;59111;-60
2023/12/22 11:01:40;;;;;;;;;;;;;;;8.65;92.07;96102.42;109454;1253;74728;-60
2023/12/22 11:04:16;;;;;;;;;;;;;;;8.53;92.58;96098.31;109492;1253;68666;-60
2023/12/22 11:06:43;;;;;;;;;;;;;;;8.59;92.74;96092.27;109505;1253;72761;-63
2023/12/22 11:09:11;;;;;;;;;;;;;;;8.76;91.93;96092.75;109100;1254;59616;-64
2023/12/22 11:11:39;;;;;;;;;;;;;;;8.80;91.58;96097.80;109344;1254;59835;-61
2023/12/22 11:14:06;;;;;;;;;;;;;;;8.68;92.55;96093.31;109459;1254;74753;-61
2023/12/22 11:16:34;;;;;;;;;;;;;;;8.75;91.81;96091.65;109536;1252;68515;-61
2023/12/22 11:19:02;;;;;;;;;;;;;;;8.75;91.63;96096.63;109392;1254;71457;-60
2023/12/22 11:21:30;;;;;;;;;;;;;;;8.54;92.80;96095.33;109362;1254;60929;-61
2023/12/22 11:23:57;;;;;;;;;;;;;;;8.55;92.52;96089.47;109377;1254;58884;-60
2023/12/22 11:26:25;;;;;;;;;;;;;;;8.52;92.72;96092.69;109434;1254;74697;-61
2023/12/22 11:28:53;;;;;;;;;;;;;;;8.55;93.36;96098.39;109267;1254;68943;-63
2023/12/22 11:31:20;;;;;;;;;;;;;;;8.61;93.02;96094.88;109217;1254;72724;-63
2023/12/22 11:33:49;;;;;;;;;;;;;;;8.52;93.35;96096.44;109240;1254;59721;-62
2023/12/22 11:36:31;;;;;;;;;;;;;;;8.43;93.35;96096.92;109478;1254;59925;-62
2023/12/22 11:38:58;;;;;;;;;;;;;;;8.64;91.41;96095.20;109297;1254;73462;-61
2023/12/22 11:41:27;;;;;;;;;;;;;;;8.91;89.50;96086.13;109376;1253;68785;-61
2023/12/22 11:43:54;;;;;;;;;;;;;;;8.99;89.40;96078.63;109380;1254;72781;-59
2023/12/22 11:46:23;;;;;;;;;;;;;;;9.06;89.33;96082.91;109377;1253;61911;-59
2023/12/22 11:48:51;;;;;;;;;;;;;;;8.98;89.69;96083.48;109493;1252;59864;-59
2023/12/22 11:51:19;;;;;;;;;;;;;;;9.04;89.29;96089.11;109592;1252;73885;-60
2023/12/22 11:53:46;;;;;;;;;;;;;;;9.01;89.24;96087.31;109339;1253;67593;-61
2023/12/22 11:56:14;;;;;;;;;;;;;;;8.97;90.31;96081.29;109518;1252;71411;-61
2023/12/22 11:58:58;;;;;;;;;;;;;;;8.82;91.30;96080.77;109524;1252;60962;-60
2023/12/22 12:01:29;;;;;;;;;;;;;;;8.89;91.92;96075.27;109521;1252;59517;-63
2023/12/22 12:03:59;;;;;;;;;;;;;;;8.90;91.50;96078.30;109518;1252;73969;-61
2023/12/22 12:06:26;;;;;;;;;;;;;;;8.95;90.94;96077.47;109504;1253;67367;-63
2023/12/22 12:08:54;;;;;;;;;;;;;;;9.07;90.80;96081.77;109539;1253;72723;-60
2023/12/22 12:11:22;;;;;;;;;;;;;;;9.08;90.59;96085.42;109516;1253;59732;-62
2023/12/22 12:13:49;;;;;;;;;;;;;;;9.00;91.04;96084.14;109458;1253;59054;-61
2023/12/22 12:16:23;;;;;;;;;;;;;;;9.15;90.72;96078.55;109580;1253;73107;-63
2023/12/22 12:18:53;;;;;;;;;;;;;;;9.17;90.10;96072.65;109542;1252;68499;-60
2023/12/22 12:21:21;;;;;;;;;;;;;;;9.21;90.11;96080.77;109456;1253;72733;-61
2023/12/22 12:23:48;;;;;;;;;;;;;;;9.21;89.65;96082.37;109406;1253;59739;-61
2023/12/22 12:26:17;;;;;;;;;;;;;;;9.15;90.32;96086.73;109443;1254;59837;-60
2023/12/22 12:28:45;;;;;;;;;;;;;;;9.33;89.28;96087.83;109416;1254;73269;-61
2023/12/22 12:31:13;;;;;;;;;;;;;;;9.36;88.78;96086.23;109469;1254;68498;-62
2023/12/22 12:33:40;;;;;;;;;;;;;;;9.33;88.90;96089.11;109397;1254;72776;-61
2023/12/22 12:36:08;;;;;;;;;;;;;;;9.23;89.44;96095.96;109420;1254;60947;-60
2023/12/22 12:38:39;;;;;;;;;;;;;;;9.31;89.28;96093.48;109439;1254;60005;-60
2023/12/22 12:41:06;;;;;;;;;;;;;;;9.42;88.40;96091.11;109100;1254;74820;-61
2023/12/22 12:43:34;;;;;;;;;;;;;;;9.46;87.57;96096.23;109109;1254;68605;-60
2023/12/22 12:46:05;;;;;;;;;;;;;;;9.38;87.42;96094.27;109433;1254;72666;-60
2023/12/22 12:48:33;;;;;;;;;;;;;;;9.18;88.75;96097.10;109320;1257;60855;-61